sensor_id;sensor_type;location;lat;lon;timestamp;pressure;altitude;pressure_sealevel;temperature;humidity
40384;BME280;26097;42.366;23.818;2023-04-25T00:00:35;93387.25;;;8.06;100.00
40384;BME280;26097;42.366;23.818;2023-04-25T00:03:35;93385.69;;;8.14;100.00
40384;BME280;26097;42.366;23.818;2023-04-25T00:06:35;93379.09;;;8.22;100.00
40384;BME280;26097;42.366;23.818;2023-04-25T00:09:36;93368.69;;;8.22;100.00
40384;BME280;26097;42.366;23.818;2023-04-25T00:12:36;93360.19;;;8.20;100.00
40384;BME280;26097;42.366;23.818;2023-04-25T00:15:37;93349.13;;;8.18;100.00
40384;BME280;26097;42.366;23.818;2023-04-25T00:18:38;93344.16;;;8.14;100.00
40384;BME280;26097;42.366;23.818;2023-04-25T00:21:39;93351.84;;;8.16;100.00
40384;BME280;26097;42.366;23.818;2023-04-25T00:24:43;93343.81;;;8.19;100.00
40384;BME280;26097;42.366;23.818;2023-04-25T00:27:43;93338.72;;;8.18;100.00
40384;BME280;26097;42.366;23.818;2023-04-25T00:30:44;93329.19;;;8.18;100.00
40384;BME280;26097;42.366;23.818;2023-04-25T00:33:44;93326.59;;;8.18;100.00
40384;BME280;26097;42.366;23.818;2023-04-25T00:36:44;93326.94;;;8.13;100.00
40384;BME280;26097;42.366;23.818;2023-04-25T00:39:45;93326.94;;;8.13;100.00
40384;BME280;26097;42.366;23.818;2023-04-25T00:42:46;93326.09;;;8.13;100.00
40384;BME280;26097;42.366;23.818;2023-04-25T00:45:47;93317.28;;;8.04;100.00
40384;BME280;26097;42.366;23.818;2023-04-25T00:48:48;93328.59;;;8.03;100.00
40384;BME280;26097;42.366;23.818;2023-04-25T00:51:49;93324.09;;;8.05;100.00
40384;BME280;26097;42.366;23.818;2023-04-25T00:54:49;93330.59;;;8.11;100.00
40384;BME280;26097;42.366;23.818;2023-04-25T00:57:50;93324.22;;;8.15;100.00
40384;BME280;26097;42.366;23.818;2023-04-25T01:00:51;93318.22;;;8.14;100.00
40384;BME280;26097;42.366;23.818;2023-04-25T01:03:53;93303.13;;;8.08;100.00
40384;BME280;26097;42.366;23.818;2023-04-25T01:06:54;93306.69;;;8.07;100.00
40384;BME280;26097;42.366;23.818;2023-04-25T01:09:55;93306.09;;;8.04;100.00
40384;BME280;26097;42.366;23.818;2023-04-25T01:12:56;93312.81;;;7.95;100.00
40384;BME280;26097;42.366;23.818;2023-04-25T01:15:56;93318.50;;;7.89;100.00
40384;BME280;26097;42.366;23.818;2023-04-25T01:18:56;93316.84;;;7.88;100.00
40384;BME280;26097;42.366;23.818;2023-04-25T01:21:57;93311.41;;;7.79;100.00
40384;BME280;26097;42.366;23.818;2023-04-25T01:24:57;93297.72;;;7.66;100.00
40384;BME280;26097;42.366;23.818;2023-04-25T01:27:58;93294.22;;;7.67;100.00
40384;BME280;26097;42.366;23.818;2023-04-25T01:30:59;93286.66;;;7.64;100.00
40384;BME280;26097;42.366;23.818;2023-04-25T01:33:59;93283.13;;;7.53;100.00
40384;BME280;26097;42.366;23.818;2023-04-25T01:37:00;93286.44;;;7.55;100.00
40384;BME280;26097;42.366;23.818;2023-04-25T01:40:02;93273.94;;;7.61;100.00
40384;BME280;26097;42.366;23.818;2023-04-25T01:43:02;93275.56;;;7.62;100.00
40384;BME280;26097;42.366;23.818;2023-04-25T01:46:03;93273.56;;;7.65;100.00
40384;BME280;26097;42.366;23.818;2023-04-25T01:49:04;93265.44;;;7.70;100.00
40384;BME280;26097;42.366;23.818;2023-04-25T01:52:05;93246.34;;;7.71;100.00
40384;BME280;26097;42.366;23.818;2023-04-25T01:55:06;93244.22;;;7.65;100.00
40384;BME280;26097;42.366;23.818;2023-04-25T01:58:07;93256.03;;;7.69;100.00
40384;BME280;26097;42.366;23.818;2023-04-25T02:01:09;93251.88;;;7.66;100.00
40384;BME280;26097;42.366;23.818;2023-04-25T02:04:10;93255.88;;;7.70;100.00
40384;BME280;26097;42.366;23.818;2023-04-25T02:07:10;93257.91;;;7.67;100.00
40384;BME280;26097;42.366;23.818;2023-04-25T02:10:11;93260.00;;;7.62;100.00
40384;BME280;26097;42.366;23.818;2023-04-25T02:13:11;93252.47;;;7.58;100.00
40384;BME280;26097;42.366;23.818;2023-04-25T02:16:11;93258.72;;;7.56;100.00
40384;BME280;26097;42.366;23.818;2023-04-25T02:19:13;93254.34;;;7.45;100.00
40384;BME280;26097;42.366;23.818;2023-04-25T02:22:13;93259.31;;;7.25;100.00
40384;BME280;26097;42.366;23.818;2023-04-25T02:25:14;93259.31;;;7.14;100.00
40384;BME280;26097;42.366;23.818;2023-04-25T02:28:16;93253.75;;;6.96;100.00
40384;BME280;26097;42.366;23.818;2023-04-25T02:31:16;93254.09;;;6.91;100.00
40384;BME280;26097;42.366;23.818;2023-04-25T02:34:16;93250.91;;;6.88;100.00
40384;BME280;26097;42.366;23.818;2023-04-25T02:37:17;93245.13;;;6.84;100.00
40384;BME280;26097;42.366;23.818;2023-04-25T02:40:17;93247.72;;;6.72;100.00
40384;BME280;26097;42.366;23.818;2023-04-25T02:43:17;93236.13;;;6.54;100.00
40384;BME280;26097;42.366;23.818;2023-04-25T02:46:18;93241.03;;;6.46;100.00
40384;BME280;26097;42.366;23.818;2023-04-25T02:49:18;93240.44;;;6.42;100.00
40384;BME280;26097;42.366;23.818;2023-04-25T02:52:19;93236.53;;;6.36;100.00
40384;BME280;26097;42.366;23.818;2023-04-25T02:55:19;93245.72;;;6.40;100.00
40384;BME280;26097;42.366;23.818;2023-04-25T02:58:19;93241.38;;;6.41;100.00
40384;BME280;26097;42.366;23.818;2023-04-25T03:01:20;93231.59;;;6.33;100.00
40384;BME280;26097;42.366;23.818;2023-04-25T03:04:21;93222.34;;;6.18;100.00
40384;BME280;26097;42.366;23.818;2023-04-25T03:07:23;93221.34;;;6.07;100.00
40384;BME280;26097;42.366;23.818;2023-04-25T03:10:24;93223.44;;;6.02;100.00
40384;BME280;26097;42.366;23.818;2023-04-25T03:13:24;93222.94;;;5.97;100.00
40384;BME280;26097;42.366;23.818;2023-04-25T03:16:25;93222.22;;;5.95;100.00
40384;BME280;26097;42.366;23.818;2023-04-25T03:19:26;93217.69;;;5.85;100.00
40384;BME280;26097;42.366;23.818;2023-04-25T03:22:26;93225.63;;;5.71;100.00
40384;BME280;26097;42.366;23.818;2023-04-25T03:25:26;93224.84;;;5.57;100.00
40384;BME280;26097;42.366;23.818;2023-04-25T03:28:27;93222.28;;;5.45;100.00
40384;BME280;26097;42.366;23.818;2023-04-25T03:31:28;93232.94;;;5.40;100.00
40384;BME280;26097;42.366;23.818;2023-04-25T03:34:28;93237.09;;;5.29;100.00
40384;BME280;26097;42.366;23.818;2023-04-25T03:37:29;93237.50;;;5.23;100.00
40384;BME280;26097;42.366;23.818;2023-04-25T03:40:29;93236.50;;;5.13;100.00
40384;BME280;26097;42.366;23.818;2023-04-25T03:43:30;93232.28;;;5.12;100.00
40384;BME280;26097;42.366;23.818;2023-04-25T03:46:30;93239.28;;;5.10;100.00
40384;BME280;26097;42.366;23.818;2023-04-25T03:49:32;93245.38;;;5.09;100.00
40384;BME280;26097;42.366;23.818;2023-04-25T03:52:33;93242.28;;;4.91;100.00
40384;BME280;26097;42.366;23.818;2023-04-25T03:55:33;93243.72;;;4.95;100.00
40384;BME280;26097;42.366;23.818;2023-04-25T03:58:33;93238.78;;;5.05;100.00
40384;BME280;26097;42.366;23.818;2023-04-25T04:01:34;93246.31;;;5.08;100.00
40384;BME280;26097;42.366;23.818;2023-04-25T04:04:35;93232.53;;;5.33;100.00
40384;BME280;26097;42.366;23.818;2023-04-25T04:07:35;93238.22;;;5.25;100.00
40384;BME280;26097;42.366;23.818;2023-04-25T04:10:39;93236.28;;;5.29;100.00
40384;BME280;26097;42.366;23.818;2023-04-25T04:13:40;93242.44;;;5.39;100.00
40384;BME280;26097;42.366;23.818;2023-04-25T04:16:41;93245.22;;;5.49;100.00
40384;BME280;26097;42.366;23.818;2023-04-25T04:19:41;93248.69;;;5.74;100.00
40384;BME280;26097;42.366;23.818;2023-04-25T04:22:42;93250.13;;;6.27;100.00
40384;BME280;26097;42.366;23.818;2023-04-25T04:25:42;93247.81;;;6.71;100.00
40384;BME280;26097;42.366;23.818;2023-04-25T04:28:43;93246.84;;;7.08;100.00
40384;BME280;26097;42.366;23.818;2023-04-25T04:31:48;93244.47;;;7.39;100.00
40384;BME280;26097;42.366;23.818;2023-04-25T04:34:49;93240.81;;;7.64;100.00
40384;BME280;26097;42.366;23.818;2023-04-25T04:37:50;93238.06;;;7.89;100.00
40384;BME280;26097;42.366;23.818;2023-04-25T04:40:50;93243.19;;;8.11;100.00
40384;BME280;26097;42.366;23.818;2023-04-25T04:43:52;93245.03;;;8.21;100.00
40384;BME280;26097;42.366;23.818;2023-04-25T04:46:53;93246.41;;;8.36;100.00
40384;BME280;26097;42.366;23.818;2023-04-25T04:49:53;93244.72;;;8.47;100.00
40384;BME280;26097;42.366;23.818;2023-04-25T04:52:54;93245.13;;;8.63;100.00
40384;BME280;26097;42.366;23.818;2023-04-25T04:55:55;93236.75;;;8.81;100.00
40384;BME280;26097;42.366;23.818;2023-04-25T04:58:55;93241.75;;;8.94;100.00
40384;BME280;26097;42.366;23.818;2023-04-25T05:01:56;93249.34;;;8.97;100.00
40384;BME280;26097;42.366;23.818;2023-04-25T05:04:56;93246.22;;;9.03;100.00
40384;BME280;26097;42.366;23.818;2023-04-25T05:07:56;93242.44;;;9.17;100.00
40384;BME280;26097;42.366;23.818;2023-04-25T05:10:57;93239.78;;;9.28;100.00
40384;BME280;26097;42.366;23.818;2023-04-25T05:13:57;93233.56;;;9.51;100.00
40384;BME280;26097;42.366;23.818;2023-04-25T05:16:58;93243.09;;;9.81;100.00
40384;BME280;26097;42.366;23.818;2023-04-25T05:19:58;93240.81;;;9.98;100.00
40384;BME280;26097;42.366;23.818;2023-04-25T05:22:59;93239.88;;;10.09;100.00
40384;BME280;26097;42.366;23.818;2023-04-25T05:26:00;93238.78;;;10.02;100.00
40384;BME280;26097;42.366;23.818;2023-04-25T05:29:00;93236.53;;;9.87;100.00
40384;BME280;26097;42.366;23.818;2023-04-25T05:32:01;93236.81;;;9.84;100.00
40384;BME280;26097;42.366;23.818;2023-04-25T05:35:01;93245.72;;;9.81;100.00
40384;BME280;26097;42.366;23.818;2023-04-25T05:38:02;93240.50;;;9.81;100.00
40384;BME280;26097;42.366;23.818;2023-04-25T05:41:02;93245.44;;;9.75;100.00
40384;BME280;26097;42.366;23.818;2023-04-25T05:44:03;93228.19;;;9.74;100.00
40384;BME280;26097;42.366;23.818;2023-04-25T05:47:03;93234.06;;;9.76;100.00
40384;BME280;26097;42.366;23.818;2023-04-25T05:50:05;93235.03;;;9.75;100.00
40384;BME280;26097;42.366;23.818;2023-04-25T05:53:06;93233.94;;;9.87;100.00
40384;BME280;26097;42.366;23.818;2023-04-25T05:56:06;93231.75;;;9.92;100.00
40384;BME280;26097;42.366;23.818;2023-04-25T05:59:07;93230.94;;;9.82;100.00
40384;BME280;26097;42.366;23.818;2023-04-25T06:02:07;93235.56;;;9.78;100.00
40384;BME280;26097;42.366;23.818;2023-04-25T06:05:08;93245.16;;;9.78;100.00
40384;BME280;26097;42.366;23.818;2023-04-25T06:08:09;93244.88;;;9.71;100.00
40384;BME280;26097;42.366;23.818;2023-04-25T06:11:10;93244.34;;;9.77;100.00
40384;BME280;26097;42.366;23.818;2023-04-25T06:14:10;93240.78;;;9.88;100.00
40384;BME280;26097;42.366;23.818;2023-04-25T06:17:10;93233.19;;;10.16;100.00
40384;BME280;26097;42.366;23.818;2023-04-25T06:20:11;93244.69;;;10.13;100.00
40384;BME280;26097;42.366;23.818;2023-04-25T06:23:12;93237.72;;;10.24;100.00
40384;BME280;26097;42.366;23.818;2023-04-25T06:26:12;93237.84;;;10.32;100.00
40384;BME280;26097;42.366;23.818;2023-04-25T06:29:12;93243.94;;;10.42;100.00
40384;BME280;26097;42.366;23.818;2023-04-25T06:32:13;93239.25;;;10.56;100.00
40384;BME280;26097;42.366;23.818;2023-04-25T06:35:13;93243.66;;;10.65;100.00
40384;BME280;26097;42.366;23.818;2023-04-25T06:38:15;93234.84;;;10.86;100.00
40384;BME280;26097;42.366;23.818;2023-04-25T06:41:15;93234.56;;;10.89;100.00
40384;BME280;26097;42.366;23.818;2023-04-25T06:44:16;93244.44;;;10.85;100.00
40384;BME280;26097;42.366;23.818;2023-04-25T06:47:16;93252.69;;;11.00;100.00
40384;BME280;26097;42.366;23.818;2023-04-25T06:50:17;93250.97;;;11.19;100.00
40384;BME280;26097;42.366;23.818;2023-04-25T06:53:17;93250.72;;;11.22;100.00
40384;BME280;26097;42.366;23.818;2023-04-25T06:56:18;93247.09;;;11.43;100.00
40384;BME280;26097;42.366;23.818;2023-04-25T06:59:19;93245.66;;;11.49;100.00
40384;BME280;26097;42.366;23.818;2023-04-25T07:02:19;93245.16;;;11.45;100.00
40384;BME280;26097;42.366;23.818;2023-04-25T07:05:21;93242.09;;;11.60;100.00
40384;BME280;26097;42.366;23.818;2023-04-25T07:08:22;93253.66;;;11.75;100.00
40384;BME280;26097;42.366;23.818;2023-04-25T07:11:22;93250.13;;;12.04;100.00
40384;BME280;26097;42.366;23.818;2023-04-25T07:14:22;93249.78;;;12.17;100.00
40384;BME280;26097;42.366;23.818;2023-04-25T07:17:23;93245.09;;;12.21;100.00
40384;BME280;26097;42.366;23.818;2023-04-25T07:20:23;93247.66;;;12.49;100.00
40384;BME280;26097;42.366;23.818;2023-04-25T07:23:24;93246.47;;;12.61;100.00
40384;BME280;26097;42.366;23.818;2023-04-25T07:26:24;93237.78;;;12.79;100.00
40384;BME280;26097;42.366;23.818;2023-04-25T07:29:24;93248.84;;;12.91;100.00
40384;BME280;26097;42.366;23.818;2023-04-25T07:32:26;93239.97;;;13.10;100.00
40384;BME280;26097;42.366;23.818;2023-04-25T07:35:26;93242.13;;;13.14;100.00
40384;BME280;26097;42.366;23.818;2023-04-25T07:38:27;93237.50;;;13.35;100.00
40384;BME280;26097;42.366;23.818;2023-04-25T07:41:27;93240.22;;;13.43;100.00
40384;BME280;26097;42.366;23.818;2023-04-25T07:44:28;93238.69;;;13.67;100.00
40384;BME280;26097;42.366;23.818;2023-04-25T07:47:30;93239.59;;;13.49;100.00
40384;BME280;26097;42.366;23.818;2023-04-25T07:50:31;93232.44;;;13.60;100.00
40384;BME280;26097;42.366;23.818;2023-04-25T07:53:31;93231.56;;;13.77;100.00
40384;BME280;26097;42.366;23.818;2023-04-25T07:56:33;93225.41;;;14.03;100.00
40384;BME280;26097;42.366;23.818;2023-04-25T07:59:34;93228.13;;;14.45;100.00
40384;BME280;26097;42.366;23.818;2023-04-25T08:02:35;93222.13;;;14.94;100.00
40384;BME280;26097;42.366;23.818;2023-04-25T08:05:36;93227.59;;;15.65;100.00
40384;BME280;26097;42.366;23.818;2023-04-25T08:08:36;93223.41;;;15.96;100.00
40384;BME280;26097;42.366;23.818;2023-04-25T08:11:37;93226.56;;;15.91;100.00
40384;BME280;26097;42.366;23.818;2023-04-25T08:14:37;93232.53;;;15.60;100.00
40384;BME280;26097;42.366;23.818;2023-04-25T08:17:39;93237.69;;;15.20;100.00
40384;BME280;26097;42.366;23.818;2023-04-25T08:20:40;93229.19;;;15.02;100.00
40384;BME280;26097;42.366;23.818;2023-04-25T08:23:40;93236.41;;;15.16;100.00
40384;BME280;26097;42.366;23.818;2023-04-25T08:26:41;93230.97;;;15.26;100.00
40384;BME280;26097;42.366;23.818;2023-04-25T08:29:41;93233.06;;;15.39;100.00
40384;BME280;26097;42.366;23.818;2023-04-25T08:32:42;93237.53;;;15.30;100.00
40384;BME280;26097;42.366;23.818;2023-04-25T08:35:44;93232.06;;;15.56;100.00
40384;BME280;26097;42.366;23.818;2023-04-25T08:38:44;93229.81;;;15.93;100.00
40384;BME280;26097;42.366;23.818;2023-04-25T08:41:45;93237.69;;;16.65;100.00
40384;BME280;26097;42.366;23.818;2023-04-25T08:44:47;93232.34;;;16.73;100.00
40384;BME280;26097;42.366;23.818;2023-04-25T08:47:51;93222.06;;;16.63;100.00
40384;BME280;26097;42.366;23.818;2023-04-25T08:50:53;93214.31;;;16.85;100.00
40384;BME280;26097;42.366;23.818;2023-04-25T08:53:56;93216.63;;;17.26;100.00
40384;BME280;26097;42.366;23.818;2023-04-25T08:56:57;93214.16;;;16.63;100.00
40384;BME280;26097;42.366;23.818;2023-04-25T08:59:58;93213.41;;;16.31;100.00
40384;BME280;26097;42.366;23.818;2023-04-25T09:03:00;93217.56;;;16.17;100.00
40384;BME280;26097;42.366;23.818;2023-04-25T09:06:01;93216.53;;;16.50;100.00
40384;BME280;26097;42.366;23.818;2023-04-25T09:09:05;93204.28;;;16.89;100.00
40384;BME280;26097;42.366;23.818;2023-04-25T09:12:06;93201.75;;;16.95;100.00
40384;BME280;26097;42.366;23.818;2023-04-25T09:15:12;93193.75;;;16.89;100.00
40384;BME280;26097;42.366;23.818;2023-04-25T09:18:13;93191.91;;;16.51;100.00
40384;BME280;26097;42.366;23.818;2023-04-25T09:21:13;93186.50;;;16.21;100.00
40384;BME280;26097;42.366;23.818;2023-04-25T09:24:14;93191.97;;;16.11;100.00
40384;BME280;26097;42.366;23.818;2023-04-25T09:27:19;93196.38;;;15.70;100.00
40384;BME280;26097;42.366;23.818;2023-04-25T09:30:30;93197.81;;;15.90;100.00
40384;BME280;26097;42.366;23.818;2023-04-25T09:33:32;93190.47;;;16.63;100.00
40384;BME280;26097;42.366;23.818;2023-04-25T09:36:34;93163.69;;;16.83;100.00
40384;BME280;26097;42.366;23.818;2023-04-25T09:39:34;93174.50;;;17.26;100.00
40384;BME280;26097;42.366;23.818;2023-04-25T09:42:35;93153.25;;;17.43;100.00
40384;BME280;26097;42.366;23.818;2023-04-25T09:45:41;93155.88;;;18.03;79.44
40384;BME280;26097;42.366;23.818;2023-04-25T09:48:50;93153.78;;;18.35;75.68
40384;BME280;26097;42.366;23.818;2023-04-25T09:51:54;93149.91;;;18.16;69.85
40384;BME280;26097;42.366;23.818;2023-04-25T09:54:55;93144.63;;;18.31;67.30
40384;BME280;26097;42.366;23.818;2023-04-25T09:57:57;93132.59;;;18.07;68.54
40384;BME280;26097;42.366;23.818;2023-04-25T10:01:07;93138.28;;;17.44;72.56
40384;BME280;26097;42.366;23.818;2023-04-25T10:04:10;93135.22;;;16.87;69.79
40384;BME280;26097;42.366;23.818;2023-04-25T10:07:11;93129.75;;;16.88;65.75
40384;BME280;26097;42.366;23.818;2023-04-25T10:10:12;93123.72;;;17.03;69.13
40384;BME280;26097;42.366;23.818;2023-04-25T10:13:13;93121.81;;;17.26;69.99
40384;BME280;26097;42.366;23.818;2023-04-25T10:16:15;93117.50;;;17.85;69.21
40384;BME280;26097;42.366;23.818;2023-04-25T10:19:16;93112.81;;;18.61;63.68
40384;BME280;26097;42.366;23.818;2023-04-25T10:22:34;93100.97;;;19.01;63.71
40384;BME280;26097;42.366;23.818;2023-04-25T10:25:35;93074.69;;;18.92;48.83
40384;BME280;26097;42.366;23.818;2023-04-25T10:28:58;93081.88;;;19.34;53.63
40384;BME280;26097;42.366;23.818;2023-04-25T10:31:59;93089.19;;;19.80;56.87
40384;BME280;26097;42.366;23.818;2023-04-25T10:35:19;93092.16;;;19.22;56.49
40384;BME280;26097;42.366;23.818;2023-04-25T10:38:25;93092.13;;;19.15;57.54
40384;BME280;26097;42.366;23.818;2023-04-25T10:41:27;93095.69;;;19.01;58.38
40384;BME280;26097;42.366;23.818;2023-04-25T10:44:30;93101.53;;;18.74;51.70
40384;BME280;26097;42.366;23.818;2023-04-25T10:47:35;93118.63;;;18.28;52.99
40384;BME280;26097;42.366;23.818;2023-04-25T10:50:39;93114.88;;;17.85;53.81
40384;BME280;26097;42.366;23.818;2023-04-25T10:53:39;93109.28;;;18.76;53.23
40384;BME280;26097;42.366;23.818;2023-04-25T10:56:41;93113.91;;;18.95;44.93
40384;BME280;26097;42.366;23.818;2023-04-25T10:59:44;93114.81;;;19.38;47.36
40384;BME280;26097;42.366;23.818;2023-04-25T11:02:58;93111.00;;;19.47;44.05
40384;BME280;26097;42.366;23.818;2023-04-25T11:06:00;93092.44;;;19.34;45.31
40384;BME280;26097;42.366;23.818;2023-04-25T11:09:02;93095.13;;;19.40;43.95
40384;BME280;26097;42.366;23.818;2023-04-25T11:12:03;93082.16;;;19.52;45.37
40384;BME280;26097;42.366;23.818;2023-04-25T11:15:06;93082.38;;;18.65;44.39
40384;BME280;26097;42.366;23.818;2023-04-25T11:18:07;93088.06;;;18.62;43.98
40384;BME280;26097;42.366;23.818;2023-04-25T11:21:08;93106.31;;;18.86;45.26
40384;BME280;26097;42.366;23.818;2023-04-25T11:24:09;93105.84;;;18.53;44.69
40384;BME280;26097;42.366;23.818;2023-04-25T11:27:10;93103.66;;;18.35;46.77
40384;BME280;26097;42.366;23.818;2023-04-25T11:30:14;93113.53;;;17.90;47.43
40384;BME280;26097;42.366;23.818;2023-04-25T11:33:17;93106.19;;;17.70;50.09
40384;BME280;26097;42.366;23.818;2023-04-25T11:36:18;93114.69;;;18.02;49.42
40384;BME280;26097;42.366;23.818;2023-04-25T11:39:19;93125.31;;;18.09;48.17
40384;BME280;26097;42.366;23.818;2023-04-25T11:42:21;93133.53;;;17.54;54.48
40384;BME280;26097;42.366;23.818;2023-04-25T11:45:22;93133.56;;;17.24;58.21
40384;BME280;26097;42.366;23.818;2023-04-25T11:48:23;93138.66;;;17.40;55.90
40384;BME280;26097;42.366;23.818;2023-04-25T11:51:24;93152.38;;;16.59;57.13
40384;BME280;26097;42.366;23.818;2023-04-25T11:54:25;93118.66;;;16.78;58.17
40384;BME280;26097;42.366;23.818;2023-04-25T11:57:26;93103.50;;;16.65;59.05
40384;BME280;26097;42.366;23.818;2023-04-25T12:00:27;93091.47;;;16.47;58.95
40384;BME280;26097;42.366;23.818;2023-04-25T12:03:29;93084.25;;;17.03;59.00
40384;BME280;26097;42.366;23.818;2023-04-25T12:06:37;93083.38;;;16.87;59.31
40384;BME280;26097;42.366;23.818;2023-04-25T12:09:38;93078.44;;;17.22;58.66
40384;BME280;26097;42.366;23.818;2023-04-25T12:12:44;93078.06;;;17.25;57.75
40384;BME280;26097;42.366;23.818;2023-04-25T12:15:45;93078.94;;;17.63;59.89
40384;BME280;26097;42.366;23.818;2023-04-25T12:18:45;93063.06;;;17.41;60.40
40384;BME280;26097;42.366;23.818;2023-04-25T12:21:46;93058.25;;;17.81;60.50
40384;BME280;26097;42.366;23.818;2023-04-25T12:24:47;93086.59;;;18.31;57.44
40384;BME280;26097;42.366;23.818;2023-04-25T12:27:47;93097.88;;;16.68;60.64
40384;BME280;26097;42.366;23.818;2023-04-25T12:31:06;93102.59;;;17.26;60.31
40384;BME280;26097;42.366;23.818;2023-04-25T12:34:06;93125.88;;;16.99;58.96
40384;BME280;26097;42.366;23.818;2023-04-25T12:37:07;93105.31;;;17.33;57.28
40384;BME280;26097;42.366;23.818;2023-04-25T12:40:08;93098.16;;;17.78;61.26
40384;BME280;26097;42.366;23.818;2023-04-25T12:43:08;93097.72;;;17.75;61.35
40384;BME280;26097;42.366;23.818;2023-04-25T12:46:09;93102.88;;;16.78;63.12
40384;BME280;26097;42.366;23.818;2023-04-25T12:49:10;93102.16;;;16.84;64.76
40384;BME280;26097;42.366;23.818;2023-04-25T12:52:10;93098.25;;;16.41;68.08
40384;BME280;26097;42.366;23.818;2023-04-25T12:55:10;93105.88;;;16.36;68.22
40384;BME280;26097;42.366;23.818;2023-04-25T12:58:11;93093.34;;;16.38;66.39
40384;BME280;26097;42.366;23.818;2023-04-25T13:01:12;93091.72;;;16.37;66.99
40384;BME280;26097;42.366;23.818;2023-04-25T13:04:13;93086.69;;;16.27;67.29
40384;BME280;26097;42.366;23.818;2023-04-25T13:07:14;93101.81;;;16.49;66.92
40384;BME280;26097;42.366;23.818;2023-04-25T13:10:16;93100.47;;;16.53;69.34
40384;BME280;26097;42.366;23.818;2023-04-25T13:13:17;93101.56;;;15.89;69.36
40384;BME280;26097;42.366;23.818;2023-04-25T13:16:18;93108.63;;;15.56;68.71
40384;BME280;26097;42.366;23.818;2023-04-25T13:19:20;93118.28;;;15.08;69.98
40384;BME280;26097;42.366;23.818;2023-04-25T13:22:21;93114.41;;;14.87;72.34
40384;BME280;26097;42.366;23.818;2023-04-25T13:25:21;93125.88;;;14.53;75.77
40384;BME280;26097;42.366;23.818;2023-04-25T13:28:22;93128.34;;;14.54;72.56
40384;BME280;26097;42.366;23.818;2023-04-25T13:31:22;93124.72;;;14.55;74.74
40384;BME280;26097;42.366;23.818;2023-04-25T13:34:22;93124.72;;;14.55;74.80
40384;BME280;26097;42.366;23.818;2023-04-25T13:37:23;93128.38;;;14.71;69.29
40384;BME280;26097;42.366;23.818;2023-04-25T13:40:24;93127.81;;;14.92;68.93
40384;BME280;26097;42.366;23.818;2023-04-25T13:43:25;93118.97;;;14.93;63.07
40384;BME280;26097;42.366;23.818;2023-04-25T13:46:25;93111.75;;;15.04;64.59
40384;BME280;26097;42.366;23.818;2023-04-25T13:49:26;93124.47;;;15.23;61.98
40384;BME280;26097;42.366;23.818;2023-04-25T13:52:26;93115.34;;;15.03;62.04
40384;BME280;26097;42.366;23.818;2023-04-25T13:55:27;93121.09;;;15.06;60.47
40384;BME280;26097;42.366;23.818;2023-04-25T13:58:27;93121.78;;;14.92;61.17
40384;BME280;26097;42.366;23.818;2023-04-25T14:01:28;93110.97;;;14.87;62.64
40384;BME280;26097;42.366;23.818;2023-04-25T14:04:31;93109.16;;;14.95;62.94
40384;BME280;26097;42.366;23.818;2023-04-25T14:07:33;93114.03;;;15.07;64.14
40384;BME280;26097;42.366;23.818;2023-04-25T14:10:35;93102.53;;;15.08;65.66
40384;BME280;26097;42.366;23.818;2023-04-25T14:13:35;93109.28;;;15.02;65.28
40384;BME280;26097;42.366;23.818;2023-04-25T14:16:36;93121.91;;;15.15;66.19
40384;BME280;26097;42.366;23.818;2023-04-25T14:19:36;93113.34;;;15.13;65.51
40384;BME280;26097;42.366;23.818;2023-04-25T14:22:38;93110.72;;;15.21;65.79
40384;BME280;26097;42.366;23.818;2023-04-25T14:25:42;93105.31;;;15.14;65.41
40384;BME280;26097;42.366;23.818;2023-04-25T14:28:43;93103.13;;;15.35;65.07
40384;BME280;26097;42.366;23.818;2023-04-25T14:31:43;93108.88;;;15.22;65.23
40384;BME280;26097;42.366;23.818;2023-04-25T14:34:45;93111.56;;;15.13;66.34
40384;BME280;26097;42.366;23.818;2023-04-25T14:37:45;93113.06;;;14.91;66.34
40384;BME280;26097;42.366;23.818;2023-04-25T14:40:46;93113.91;;;14.92;67.01
40384;BME280;26097;42.366;23.818;2023-04-25T14:43:46;93105.63;;;15.20;67.29
40384;BME280;26097;42.366;23.818;2023-04-25T14:46:47;93112.09;;;15.01;66.88
40384;BME280;26097;42.366;23.818;2023-04-25T14:49:47;93107.19;;;14.97;66.83
40384;BME280;26097;42.366;23.818;2023-04-25T14:52:54;93105.34;;;15.06;66.33
40384;BME280;26097;42.366;23.818;2023-04-25T14:55:58;93101.28;;;14.95;67.94
40384;BME280;26097;42.366;23.818;2023-04-25T14:58:59;93104.72;;;14.96;69.53
40384;BME280;26097;42.366;23.818;2023-04-25T15:01:59;93097.38;;;14.58;71.18
40384;BME280;26097;42.366;23.818;2023-04-25T15:05:00;93086.41;;;14.46;73.52
40384;BME280;26097;42.366;23.818;2023-04-25T15:08:02;93089.50;;;14.41;72.03
40384;BME280;26097;42.366;23.818;2023-04-25T15:11:02;93095.09;;;14.38;71.06
40384;BME280;26097;42.366;23.818;2023-04-25T15:14:03;93081.63;;;14.08;73.96
40384;BME280;26097;42.366;23.818;2023-04-25T15:17:03;93075.09;;;14.04;75.34
40384;BME280;26097;42.366;23.818;2023-04-25T15:20:06;93066.19;;;13.72;73.57
40384;BME280;26097;42.366;23.818;2023-04-25T15:23:06;93071.94;;;13.67;75.05
40384;BME280;26097;42.366;23.818;2023-04-25T15:26:08;93065.50;;;13.45;75.88
40384;BME280;26097;42.366;23.818;2023-04-25T15:29:08;93045.13;;;13.31;75.19
40384;BME280;26097;42.366;23.818;2023-04-25T15:32:09;93042.16;;;13.17;75.98
40384;BME280;26097;42.366;23.818;2023-04-25T15:35:10;93029.69;;;13.11;76.60
40384;BME280;26097;42.366;23.818;2023-04-25T15:38:10;93035.88;;;13.02;76.72
40384;BME280;26097;42.366;23.818;2023-04-25T15:41:12;93033.22;;;12.93;78.99
40384;BME280;26097;42.366;23.818;2023-04-25T15:44:12;93032.91;;;12.96;78.13